sensor_id;sensor_type;location;lat;lon;timestamp;pressure;altitude;pressure_sealevel;temperature;humidity
51687;BME280;37774;52.192;4.584;2023-07-29T00:05:30;99433.59;;;15.37;100.00
51687;BME280;37774;52.192;4.584;2023-07-29T00:11:26;99803.75;;;17.85;100.00
51687;BME280;37774;52.192;4.584;2023-07-29T00:14:17;99501.56;;;15.93;100.00
51687;BME280;37774;52.192;4.584;2023-07-29T00:17:03;99634.25;;;16.80;100.00
51687;BME280;37774;52.192;4.584;2023-07-29T00:19:53;99868.31;;;18.23;100.00
51687;BME280;37774;52.192;4.584;2023-07-29T00:23:03;99487.59;;;15.74;100.00
51687;BME280;37774;52.192;4.584;2023-07-29T00:28:22;99568.16;;;15.87;100.00
51687;BME280;37774;52.192;4.584;2023-07-29T00:31:10;99601.94;;;15.93;100.00
51687;BME280;37774;52.192;4.584;2023-07-29T00:33:56;99855.47;;;17.51;100.00
51687;BME280;37774;52.192;4.584;2023-07-29T00:36:42;99962.28;;;18.03;100.00
51687;BME280;37774;52.192;4.584;2023-07-29T00:39:33;99987.78;;;17.84;100.00
51687;BME280;37774;52.192;4.584;2023-07-29T00:42:19;99902.31;;;17.25;100.00
51687;BME280;37774;52.192;4.584;2023-07-29T00:45:08;100113.88;;;18.38;100.00
51687;BME280;37774;52.192;4.584;2023-07-29T00:48:09;99729.16;;;15.80;100.00
51687;BME280;37774;52.192;4.584;2023-07-29T00:51:00;100071.72;;;17.87;100.00
51687;BME280;37774;52.192;4.584;2023-07-29T00:54:05;99801.53;;;16.01;100.00
51687;BME280;37774;52.192;4.584;2023-07-29T01:04:38;100197.34;;;17.98;100.00
51687;BME280;37774;52.192;4.584;2023-07-29T01:07:28;100216.03;;;17.91;100.00
51687;BME280;37774;52.192;4.584;2023-07-29T01:10:21;100200.88;;;17.96;100.00
51687;BME280;37774;52.192;4.584;2023-07-29T01:13:17;100231.69;;;17.75;100.00
51687;BME280;37774;52.192;4.584;2023-07-29T01:16:11;100256.84;;;18.00;100.00
51687;BME280;37774;52.192;4.584;2023-07-29T01:19:05;100270.81;;;18.01;100.00
51687;BME280;37774;52.192;4.584;2023-07-29T01:21:52;100268.84;;;17.87;100.00
51687;BME280;37774;52.192;4.584;2023-07-29T01:24:39;100267.75;;;17.91;100.00
51687;BME280;37774;52.192;4.584;2023-07-29T01:27:24;100235.34;;;17.54;100.00
51687;BME280;37774;52.192;4.584;2023-07-29T01:30:10;100269.31;;;17.76;100.00
51687;BME280;37774;52.192;4.584;2023-07-29T01:33:00;100294.63;;;17.78;100.00
51687;BME280;37774;52.192;4.584;2023-07-29T01:35:51;100281.53;;;17.77;100.00
51687;BME280;37774;52.192;4.584;2023-07-29T01:38:38;100289.72;;;17.71;100.00
51687;BME280;37774;52.192;4.584;2023-07-29T01:41:26;100255.28;;;17.58;100.00
51687;BME280;37774;52.192;4.584;2023-07-29T01:44:12;100249.88;;;17.61;100.00
51687;BME280;37774;52.192;4.584;2023-07-29T01:46:59;100200.03;;;17.40;100.00
51687;BME280;37774;52.192;4.584;2023-07-29T01:49:44;100224.53;;;17.60;100.00
51687;BME280;37774;52.192;4.584;2023-07-29T01:52:30;100187.28;;;17.51;100.00
51687;BME280;37774;52.192;4.584;2023-07-29T01:55:15;100166.94;;;17.55;100.00
51687;BME280;37774;52.192;4.584;2023-07-29T01:58:02;100151.47;;;17.49;100.00
51687;BME280;37774;52.192;4.584;2023-07-29T02:00:47;100151.91;;;17.59;100.00
51687;BME280;37774;52.192;4.584;2023-07-29T02:03:33;100141.81;;;17.49;100.00
51687;BME280;37774;52.192;4.584;2023-07-29T02:06:18;100108.75;;;17.45;100.00
51687;BME280;37774;52.192;4.584;2023-07-29T02:09:04;100081.06;;;17.38;100.00
51687;BME280;37774;52.192;4.584;2023-07-29T02:11:49;100062.53;;;17.41;100.00
51687;BME280;37774;52.192;4.584;2023-07-29T02:14:36;100030.78;;;17.28;100.00
51687;BME280;37774;52.192;4.584;2023-07-29T02:17:21;99976.94;;;17.19;100.00
51687;BME280;37774;52.192;4.584;2023-07-29T02:20:08;99993.78;;;17.33;100.00
51687;BME280;37774;52.192;4.584;2023-07-29T02:22:55;99970.47;;;17.27;100.00
51687;BME280;37774;52.192;4.584;2023-07-29T02:25:40;99902.66;;;17.00;100.00
51687;BME280;37774;52.192;4.584;2023-07-29T02:28:26;99891.56;;;17.12;100.00
51687;BME280;37774;52.192;4.584;2023-07-29T02:31:19;99768.34;;;16.74;100.00
51687;BME280;37774;52.192;4.584;2023-07-29T02:34:05;99860.97;;;17.29;100.00
51687;BME280;37774;52.192;4.584;2023-07-29T02:36:50;99847.00;;;17.28;100.00
51687;BME280;37774;52.192;4.584;2023-07-29T02:39:36;99745.53;;;16.58;100.00
51687;BME280;37774;52.192;4.584;2023-07-29T02:42:21;99828.34;;;17.17;100.00
51687;BME280;37774;52.192;4.584;2023-07-29T02:45:07;99800.19;;;17.36;100.00
51687;BME280;37774;52.192;4.584;2023-07-29T02:47:55;99790.69;;;17.34;100.00
51687;BME280;37774;52.192;4.584;2023-07-29T02:50:41;99787.16;;;17.17;100.00
51687;BME280;37774;52.192;4.584;2023-07-29T02:53:26;99732.97;;;17.16;100.00
51687;BME280;37774;52.192;4.584;2023-07-29T02:56:11;99755.72;;;17.49;100.00
51687;BME280;37774;52.192;4.584;2023-07-29T02:58:57;99765.28;;;17.34;100.00
51687;BME280;37774;52.192;4.584;2023-07-29T03:01:42;99755.56;;;17.36;100.00
51687;BME280;37774;52.192;4.584;2023-07-29T03:04:29;99719.84;;;17.16;100.00
51687;BME280;37774;52.192;4.584;2023-07-29T03:07:15;99726.31;;;17.27;100.00
51687;BME280;37774;52.192;4.584;2023-07-29T03:10:00;99540.28;;;16.03;100.00
51687;BME280;37774;52.192;4.584;2023-07-29T03:12:46;99760.81;;;17.36;100.00
51687;BME280;37774;52.192;4.584;2023-07-29T03:15:31;99767.16;;;17.32;100.00
51687;BME280;37774;52.192;4.584;2023-07-29T03:18:18;99757.00;;;17.42;100.00
51687;BME280;37774;52.192;4.584;2023-07-29T03:21:05;99746.81;;;17.36;100.00
51687;BME280;37774;52.192;4.584;2023-07-29T03:23:51;99734.00;;;17.30;100.00
51687;BME280;37774;52.192;4.584;2023-07-29T03:26:37;99717.56;;;17.10;100.00
51687;BME280;37774;52.192;4.584;2023-07-29T03:29:22;99599.09;;;16.67;100.00
51687;BME280;37774;52.192;4.584;2023-07-29T03:32:08;99669.88;;;17.02;100.00
51687;BME280;37774;52.192;4.584;2023-07-29T03:34:54;99660.34;;;17.33;100.00
51687;BME280;37774;52.192;4.584;2023-07-29T03:37:41;99660.59;;;17.60;100.00
51687;BME280;37774;52.192;4.584;2023-07-29T03:40:26;99680.25;;;17.37;100.00
51687;BME280;37774;52.192;4.584;2023-07-29T03:43:12;99643.81;;;17.31;100.00
51687;BME280;37774;52.192;4.584;2023-07-29T03:45:57;99660.28;;;17.34;100.00
51687;BME280;37774;52.192;4.584;2023-07-29T03:48:43;99617.91;;;17.25;100.00
51687;BME280;37774;52.192;4.584;2023-07-29T03:51:28;99659.06;;;17.72;100.00
51687;BME280;37774;52.192;4.584;2023-07-29T03:54:15;99651.88;;;17.44;100.00
51687;BME280;37774;52.192;4.584;2023-07-29T03:57:00;99688.22;;;17.67;100.00
51687;BME280;37774;52.192;4.584;2023-07-29T03:59:46;99655.78;;;17.52;100.00
51687;BME280;37774;52.192;4.584;2023-07-29T04:02:31;99643.25;;;17.42;100.00
51687;BME280;37774;52.192;4.584;2023-07-29T04:05:17;99569.56;;;17.13;100.00
51687;BME280;37774;52.192;4.584;2023-07-29T04:08:02;99630.78;;;17.45;100.00
51687;BME280;37774;52.192;4.584;2023-07-29T04:10:49;99657.97;;;17.60;100.00
51687;BME280;37774;52.192;4.584;2023-07-29T04:13:34;99618.16;;;17.52;100.00
51687;BME280;37774;52.192;4.584;2023-07-29T04:16:21;99660.78;;;17.73;100.00
51687;BME280;37774;52.192;4.584;2023-07-29T04:19:06;99660.78;;;17.73;100.00
51687;BME280;37774;52.192;4.584;2023-07-29T04:21:52;99662.81;;;17.68;100.00
51687;BME280;37774;52.192;4.584;2023-07-29T04:24:37;99381.31;;;15.86;100.00
51687;BME280;37774;52.192;4.584;2023-07-29T04:27:24;99652.38;;;17.66;100.00
51687;BME280;37774;52.192;4.584;2023-07-29T04:30:10;99634.84;;;17.67;100.00
51687;BME280;37774;52.192;4.584;2023-07-29T04:32:55;99650.09;;;17.76;100.00
51687;BME280;37774;52.192;4.584;2023-07-29T04:35:41;99581.50;;;17.34;100.00
51687;BME280;37774;52.192;4.584;2023-07-29T04:38:33;99680.41;;;17.82;100.00
51687;BME280;37774;52.192;4.584;2023-07-29T04:41:18;99643.72;;;17.64;100.00
51687;BME280;37774;52.192;4.584;2023-07-29T04:44:05;99671.00;;;17.94;100.00
51687;BME280;37774;52.192;4.584;2023-07-29T04:46:51;99663.63;;;17.85;100.00
51687;BME280;37774;52.192;4.584;2023-07-29T04:49:36;99666.09;;;18.04;100.00
51687;BME280;37774;52.192;4.584;2023-07-29T04:52:22;99643.78;;;17.95;100.00
51687;BME280;37774;52.192;4.584;2023-07-29T04:55:08;99622.78;;;17.79;100.00
51687;BME280;37774;52.192;4.584;2023-07-29T04:57:53;99653.19;;;18.15;100.00
51687;BME280;37774;52.192;4.584;2023-07-29T05:00:40;99527.13;;;17.20;100.00
51687;BME280;37774;52.192;4.584;2023-07-29T05:03:25;99601.97;;;17.60;100.00
51687;BME280;37774;52.192;4.584;2023-07-29T05:06:11;99618.03;;;17.86;100.00
51687;BME280;37774;52.192;4.584;2023-07-29T05:08:57;99659.44;;;18.13;100.00
51687;BME280;37774;52.192;4.584;2023-07-29T05:11:42;99657.94;;;18.08;100.00
51687;BME280;37774;52.192;4.584;2023-07-29T05:14:29;99632.59;;;17.91;100.00
51687;BME280;37774;52.192;4.584;2023-07-29T05:17:16;99662.19;;;18.11;100.00
51687;BME280;37774;52.192;4.584;2023-07-29T05:20:01;99660.13;;;18.16;100.00
51687;BME280;37774;52.192;4.584;2023-07-29T05:22:47;99658.88;;;18.07;100.00
51687;BME280;37774;52.192;4.584;2023-07-29T05:25:32;99632.75;;;18.04;100.00
51687;BME280;37774;52.192;4.584;2023-07-29T05:28:18;99630.59;;;18.42;100.00
51687;BME280;37774;52.192;4.584;2023-07-29T05:31:04;99672.59;;;18.43;100.00
51687;BME280;37774;52.192;4.584;2023-07-29T05:33:51;99674.69;;;18.52;100.00
51687;BME280;37774;52.192;4.584;2023-07-29T05:36:36;99669.22;;;18.56;100.00
51687;BME280;37774;52.192;4.584;2023-07-29T05:39:23;99556.13;;;17.96;100.00
51687;BME280;37774;52.192;4.584;2023-07-29T05:42:08;99688.81;;;18.80;100.00
51687;BME280;37774;52.192;4.584;2023-07-29T05:44:53;99651.13;;;18.65;100.00
51687;BME280;37774;52.192;4.584;2023-07-29T05:47:39;99659.84;;;18.66;100.00
51687;BME280;37774;52.192;4.584;2023-07-29T05:50:26;99716.81;;;18.81;100.00
51687;BME280;37774;52.192;4.584;2023-07-29T05:53:11;99700.75;;;18.72;100.00
51687;BME280;37774;52.192;4.584;2023-07-29T05:55:57;99716.38;;;18.89;100.00
51687;BME280;37774;52.192;4.584;2023-07-29T05:58:42;99714.81;;;19.16;100.00
51687;BME280;37774;52.192;4.584;2023-07-29T06:01:28;99756.66;;;19.06;100.00
51687;BME280;37774;52.192;4.584;2023-07-29T06:04:13;99737.59;;;18.86;100.00
51687;BME280;37774;52.192;4.584;2023-07-29T06:07:00;99754.75;;;19.08;100.00
51687;BME280;37774;52.192;4.584;2023-07-29T06:09:46;99723.84;;;18.66;100.00
51687;BME280;37774;52.192;4.584;2023-07-29T06:12:31;99749.28;;;18.96;100.00
51687;BME280;37774;52.192;4.584;2023-07-29T06:15:17;99777.13;;;19.01;100.00
51687;BME280;37774;52.192;4.584;2023-07-29T06:18:05;99750.13;;;18.97;100.00
51687;BME280;37774;52.192;4.584;2023-07-29T06:20:51;99747.94;;;18.89;100.00
51687;BME280;37774;52.192;4.584;2023-07-29T06:23:38;99789.81;;;19.08;100.00
51687;BME280;37774;52.192;4.584;2023-07-29T06:26:24;99770.59;;;18.92;100.00
51687;BME280;37774;52.192;4.584;2023-07-29T06:29:09;99789.28;;;19.18;100.00
51687;BME280;37774;52.192;4.584;2023-07-29T06:31:54;99786.66;;;19.18;100.00
51687;BME280;37774;52.192;4.584;2023-07-29T06:34:40;99777.16;;;19.15;100.00
51687;BME280;37774;52.192;4.584;2023-07-29T06:37:25;99835.78;;;19.48;100.00
51687;BME280;37774;52.192;4.584;2023-07-29T06:40:12;99853.94;;;19.52;100.00
51687;BME280;37774;52.192;4.584;2023-07-29T06:42:58;99835.59;;;19.36;100.00
51687;BME280;37774;52.192;4.584;2023-07-29T06:45:43;99797.28;;;19.16;100.00
51687;BME280;37774;52.192;4.584;2023-07-29T06:48:29;99775.09;;;19.35;100.00
51687;BME280;37774;52.192;4.584;2023-07-29T06:51:14;99795.22;;;19.65;100.00
51687;BME280;37774;52.192;4.584;2023-07-29T06:54:00;99768.69;;;19.68;100.00
51687;BME280;37774;52.192;4.584;2023-07-29T06:56:47;99796.25;;;19.62;100.00
51687;BME280;37774;52.192;4.584;2023-07-29T07:13:36;99782.41;;;19.44;100.00
51687;BME280;37774;52.192;4.584;2023-07-29T07:16:21;99752.06;;;19.09;100.00
51687;BME280;37774;52.192;4.584;2023-07-29T07:19:07;99797.97;;;19.49;100.00
51687;BME280;37774;52.192;4.584;2023-07-29T07:21:52;99674.69;;;18.22;100.00
51687;BME280;37774;52.192;4.584;2023-07-29T07:24:38;99873.44;;;19.64;100.00
51687;BME280;37774;52.192;4.584;2023-07-29T07:27:26;99857.69;;;19.03;100.00
51687;BME280;37774;52.192;4.584;2023-07-29T07:30:12;100018.72;;;19.89;100.00
51687;BME280;37774;52.192;4.584;2023-07-29T07:32:58;100077.50;;;19.91;100.00
51687;BME280;37774;52.192;4.584;2023-07-29T07:35:43;100141.72;;;20.20;100.00
51687;BME280;37774;52.192;4.584;2023-07-29T07:38:28;100109.59;;;19.67;100.00
51687;BME280;37774;52.192;4.584;2023-07-29T07:41:14;100201.56;;;19.55;100.00
51687;BME280;37774;52.192;4.584;2023-07-29T07:44:00;100292.41;;;19.98;100.00
51687;BME280;37774;52.192;4.584;2023-07-29T07:46:47;100299.94;;;19.72;100.00
51687;BME280;37774;52.192;4.584;2023-07-29T07:49:33;100286.81;;;19.38;100.00
51687;BME280;37774;52.192;4.584;2023-07-29T07:52:18;100139.31;;;18.37;100.00
51687;BME280;37774;52.192;4.584;2023-07-29T07:55:05;100280.97;;;19.16;100.00
51687;BME280;37774;52.192;4.584;2023-07-29T07:57:50;100386.88;;;19.56;100.00
51687;BME280;37774;52.192;4.584;2023-07-29T08:00:36;100376.41;;;19.21;100.00
51687;BME280;37774;52.192;4.584;2023-07-29T08:03:23;100385.75;;;19.26;100.00
51687;BME280;37774;52.192;4.584;2023-07-29T08:06:08;100363.72;;;19.45;100.00
51687;BME280;37774;52.192;4.584;2023-07-29T08:08:54;100302.44;;;19.08;100.00
51687;BME280;37774;52.192;4.584;2023-07-29T08:11:47;100113.16;;;17.99;100.00
51687;BME280;37774;52.192;4.584;2023-07-29T08:14:33;100358.56;;;19.44;100.00
51687;BME280;37774;52.192;4.584;2023-07-29T08:17:18;100311.56;;;19.18;100.00
51687;BME280;37774;52.192;4.584;2023-07-29T08:20:06;100427.19;;;20.25;100.00
51687;BME280;37774;52.192;4.584;2023-07-29T08:22:52;100406.72;;;20.61;100.00
51687;BME280;37774;52.192;4.584;2023-07-29T08:25:37;100484.75;;;20.99;100.00
51687;BME280;37774;52.192;4.584;2023-07-29T08:28:22;100437.75;;;20.41;100.00
51687;BME280;37774;52.192;4.584;2023-07-29T08:31:11;100525.84;;;20.55;100.00
51687;BME280;37774;52.192;4.584;2023-07-29T09:03:46;100596.28;;;21.04;100.00
51687;BME280;37774;52.192;4.584;2023-07-29T09:06:36;100330.84;;;19.19;100.00
51687;BME280;37774;52.192;4.584;2023-07-29T09:09:24;100305.22;;;18.69;100.00
51687;BME280;37774;52.192;4.584;2023-07-29T09:12:27;100338.91;;;18.98;100.00
51687;BME280;37774;52.192;4.584;2023-07-29T09:15:55;100588.97;;;20.60;100.00
51687;BME280;37774;52.192;4.584;2023-07-29T09:43:01;100385.28;;;18.46;100.00
51687;BME280;37774;52.192;4.584;2023-07-29T09:45:47;100727.06;;;20.95;100.00
51687;BME280;37774;52.192;4.584;2023-07-29T09:48:33;100713.31;;;20.71;100.00
51687;BME280;37774;52.192;4.584;2023-07-29T09:51:19;100673.66;;;20.72;100.00
51687;BME280;37774;52.192;4.584;2023-07-29T09:54:16;100707.31;;;21.02;100.00
51687;BME280;37774;52.192;4.584;2023-07-29T09:57:02;100679.16;;;20.85;100.00
51687;BME280;37774;52.192;4.584;2023-07-29T09:59:55;100646.84;;;20.80;100.00
51687;BME280;37774;52.192;4.584;2023-07-29T10:02:43;100638.69;;;20.67;100.00
51687;BME280;37774;52.192;4.584;2023-07-29T10:05:29;100674.28;;;20.60;100.00
51687;BME280;37774;52.192;4.584;2023-07-29T10:08:15;100704.84;;;20.64;100.00
51687;BME280;37774;52.192;4.584;2023-07-29T10:11:01;100684.44;;;20.68;100.00
51687;BME280;37774;52.192;4.584;2023-07-29T10:13:46;100667.94;;;20.47;100.00
51687;BME280;37774;52.192;4.584;2023-07-29T10:16:36;100576.97;;;20.20;100.00
51687;BME280;37774;52.192;4.584;2023-07-29T10:19:22;100603.66;;;20.81;100.00
51687;BME280;37774;52.192;4.584;2023-07-29T10:22:08;100585.81;;;21.02;100.00
51687;BME280;37774;52.192;4.584;2023-07-29T10:24:54;100612.91;;;20.90;100.00
51687;BME280;37774;52.192;4.584;2023-07-29T10:27:43;100611.25;;;20.87;100.00
51687;BME280;37774;52.192;4.584;2023-07-29T10:30:29;100568.88;;;20.73;100.00
51687;BME280;37774;52.192;4.584;2023-07-29T10:33:16;100572.09;;;20.62;100.00
51687;BME280;37774;52.192;4.584;2023-07-29T10:36:02;100559.94;;;20.60;100.00
51687;BME280;37774;52.192;4.584;2023-07-29T10:38:48;100523.28;;;20.37;100.00
51687;BME280;37774;52.192;4.584;2023-07-29T10:41:55;100452.69;;;20.09;100.00
51687;BME280;37774;52.192;4.584;2023-07-29T10:44:50;100427.47;;;20.37;100.00
51687;BME280;37774;52.192;4.584;2023-07-29T10:47:36;100397.69;;;20.65;100.00
51687;BME280;37774;52.192;4.584;2023-07-29T10:50:23;100412.59;;;20.98;100.00
51687;BME280;37774;52.192;4.584;2023-07-29T10:53:10;100389.97;;;20.78;100.00
51687;BME280;37774;52.192;4.584;2023-07-29T10:55:56;100449.88;;;21.08;100.00
51687;BME280;37774;52.192;4.584;2023-07-29T10:58:43;100443.75;;;21.08;100.00
51687;BME280;37774;52.192;4.584;2023-07-29T11:01:30;100458.59;;;20.94;100.00
51687;BME280;37774;52.192;4.584;2023-07-29T11:04:24;100429.56;;;20.78;100.00
51687;BME280;37774;52.192;4.584;2023-07-29T11:07:25;100471.81;;;20.46;100.00
51687;BME280;37774;52.192;4.584;2023-07-29T11:10:14;100496.50;;;20.77;100.00
51687;BME280;37774;52.192;4.584;2023-07-29T11:13:00;100582.81;;;20.59;100.00
51687;BME280;37774;52.192;4.584;2023-07-29T11:15:46;100483.88;;;20.18;100.00
51687;BME280;37774;52.192;4.584;2023-07-29T11:18:32;100440.78;;;20.18;100.00
51687;BME280;37774;52.192;4.584;2023-07-29T11:21:22;100554.03;;;20.88;100.00
51687;BME280;37774;52.192;4.584;2023-07-29T11:24:17;100215.72;;;18.52;100.00
51687;BME280;37774;52.192;4.584;2023-07-29T11:27:05;100312.91;;;19.09;100.00
51687;BME280;37774;52.192;4.584;2023-07-29T11:29:56;100431.72;;;20.23;100.00
51687;BME280;37774;52.192;4.584;2023-07-29T11:32:43;100327.41;;;19.34;100.00
51687;BME280;37774;52.192;4.584;2023-07-29T11:35:29;100122.69;;;19.04;100.00
51687;BME280;37774;52.192;4.584;2023-07-29T11:38:15;100024.72;;;19.30;100.00
51687;BME280;37774;52.192;4.584;2023-07-29T11:41:02;100002.16;;;19.25;100.00
51687;BME280;37774;52.192;4.584;2023-07-29T11:43:48;99951.59;;;19.49;100.00
51687;BME280;37774;52.192;4.584;2023-07-29T11:46:34;99870.09;;;19.46;100.00
51687;BME280;37774;52.192;4.584;2023-07-29T11:49:20;99857.88;;;19.60;100.00
51687;BME280;37774;52.192;4.584;2023-07-29T11:52:07;99875.31;;;19.77;100.00
51687;BME280;37774;52.192;4.584;2023-07-29T11:54:53;99871.84;;;20.05;100.00
51687;BME280;37774;52.192;4.584;2023-07-29T11:57:42;99870.31;;;20.85;100.00
51687;BME280;37774;52.192;4.584;2023-07-29T12:00:27;99812.09;;;20.73;100.00
51687;BME280;37774;52.192;4.584;2023-07-29T12:03:13;99796.38;;;20.17;100.00
51687;BME280;37774;52.192;4.584;2023-07-29T12:06:02;99991.53;;;20.46;100.00
51687;BME280;37774;52.192;4.584;2023-07-29T12:08:47;99926.63;;;19.85;100.00
51687;BME280;37774;52.192;4.584;2023-07-29T12:11:33;99977.63;;;20.15;100.00
51687;BME280;37774;52.192;4.584;2023-07-29T12:14:26;100022.25;;;20.33;100.00
51687;BME280;37774;52.192;4.584;2023-07-29T12:17:18;99872.66;;;18.87;100.00
51687;BME280;37774;52.192;4.584;2023-07-29T12:22:45;100299.78;;;21.87;100.00
51687;BME280;37774;52.192;4.584;2023-07-29T13:51:55;100485.44;;;23.47;100.00
51687;BME280;37774;52.192;4.584;2023-07-29T13:54:41;100495.94;;;23.75;100.00
51687;BME280;37774;52.192;4.584;2023-07-29T13:57:27;100489.25;;;23.16;100.00
51687;BME280;37774;52.192;4.584;2023-07-29T14:00:13;100605.72;;;23.59;100.00
51687;BME280;37774;52.192;4.584;2023-07-29T14:02:59;100699.91;;;23.80;100.00
51687;BME280;37774;52.192;4.584;2023-07-29T14:05:45;100708.25;;;24.54;100.00
51687;BME280;37774;52.192;4.584;2023-07-29T14:08:48;100509.84;;;22.98;100.00
51687;BME280;37774;52.192;4.584;2023-07-29T14:11:41;100466.34;;;23.15;100.00
51687;BME280;37774;52.192;4.584;2023-07-29T14:14:36;100504.53;;;22.70;100.00
51687;BME280;37774;52.192;4.584;2023-07-29T14:33:58;100812.56;;;24.97;100.00
51687;BME280;37774;52.192;4.584;2023-07-29T14:37:01;100560.56;;;23.33;100.00
51687;BME280;37774;52.192;4.584;2023-07-29T14:44:12;100802.06;;;24.55;100.00
51687;BME280;37774;52.192;4.584;2023-07-29T15:15:41;100594.38;;;22.73;100.00
51687;BME280;37774;52.192;4.584;2023-07-29T15:18:27;100806.66;;;23.98;100.00
51687;BME280;37774;52.192;4.584;2023-07-29T15:21:17;100776.91;;;23.92;100.00
51687;BME280;37774;52.192;4.584;2023-07-29T15:24:02;100798.31;;;23.47;100.00
51687;BME280;37774;52.192;4.584;2023-07-29T15:26:48;100825.56;;;23.64;100.00
51687;BME280;37774;52.192;4.584;2023-07-29T15:29:33;100809.13;;;23.44;100.00
51687;BME280;37774;52.192;4.584;2023-07-29T15:32:20;100781.88;;;23.70;100.00
51687;BME280;37774;52.192;4.584;2023-07-29T15:35:06;100652.94;;;22.54;100.00
51687;BME280;37774;52.192;4.584;2023-07-29T15:37:52;100766.38;;;23.05;100.00
51687;BME280;37774;52.192;4.584;2023-07-29T15:40:37;100750.38;;;23.51;100.00
51687;BME280;37774;52.192;4.584;2023-07-29T15:43:23;100839.63;;;23.93;100.00
51687;BME280;37774;52.192;4.584;2023-07-29T15:46:08;100743.06;;;23.54;100.00
51687;BME280;37774;52.192;4.584;2023-07-29T15:48:56;100839.44;;;23.97;100.00
51687;BME280;37774;52.192;4.584;2023-07-29T15:51:43;100747.81;;;23.49;100.00
51687;BME280;37774;52.192;4.584;2023-07-29T15:54:29;100797.16;;;24.08;100.00
51687;BME280;37774;52.192;4.584;2023-07-29T15:57:14;100611.13;;;23.30;100.00
51687;BME280;37774;52.192;4.584;2023-07-29T16:00:00;100811.66;;;24.02;100.00
51687;BME280;37774;52.192;4.584;2023-07-29T16:02:45;100763.63;;;23.92;100.00
51687;BME280;37774;52.192;4.584;2023-07-29T16:05:32;100663.22;;;23.31;100.00
51687;BME280;37774;52.192;4.584;2023-07-29T16:08:17;100772.78;;;23.59;100.00
51687;BME280;37774;52.192;4.584;2023-07-29T16:11:03;100724.66;;;23.38;100.00
51687;BME280;37774;52.192;4.584;2023-07-29T16:13:48;100802.69;;;23.76;100.00
51687;BME280;37774;52.192;4.584;2023-07-29T16:16:33;100799.09;;;23.77;100.00
51687;BME280;37774;52.192;4.584;2023-07-29T16:19:23;100764.47;;;23.93;100.00
51687;BME280;37774;52.192;4.584;2023-07-29T16:22:10;100736.22;;;23.37;100.00
51687;BME280;37774;52.192;4.584;2023-07-29T16:24:56;100763.94;;;23.31;100.00
51687;BME280;37774;52.192;4.584;2023-07-29T16:27:41;100791.94;;;23.07;100.00
51687;BME280;37774;52.192;4.584;2023-07-29T16:30:26;100774.03;;;22.96;100.00
51687;BME280;37774;52.192;4.584;2023-07-29T16:33:12;100781.63;;;22.57;100.00
51687;BME280;37774;52.192;4.584;2023-07-29T16:35:57;100825.16;;;23.12;100.00
51687;BME280;37774;52.192;4.584;2023-07-29T16:38:44;100832.09;;;22.70;100.00
51687;BME280;37774;52.192;4.584;2023-07-29T16:41:30;100838.09;;;22.88;100.00
51687;BME280;37774;52.192;4.584;2023-07-29T16:44:15;100836.59;;;22.84;100.00
51687;BME280;37774;52.192;4.584;2023-07-29T16:47:01;100754.91;;;22.15;100.00
51687;BME280;37774;52.192;4.584;2023-07-29T16:49:46;100733.44;;;21.89;100.00
51687;BME280;37774;52.192;4.584;2023-07-29T16:52:31;100775.41;;;21.95;100.00
51687;BME280;37774;52.192;4.584;2023-07-29T16:55:18;100855.88;;;22.39;100.00
51687;BME280;37774;52.192;4.584;2023-07-29T16:58:03;100846.34;;;22.21;100.00
51687;BME280;37774;52.192;4.584;2023-07-29T17:00:49;100798.75;;;21.88;100.00
51687;BME280;37774;52.192;4.584;2023-07-29T17:03:34;100826.44;;;22.13;100.00
51687;BME280;37774;52.192;4.584;2023-07-29T17:06:20;100797.88;;;22.04;100.00
51687;BME280;37774;52.192;4.584;2023-07-29T17:09:05;100820.41;;;21.79;100.00
51687;BME280;37774;52.192;4.584;2023-07-29T17:11:52;100825.56;;;21.65;100.00
51687;BME280;37774;52.192;4.584;2023-07-29T17:14:39;100665.69;;;20.56;100.00
51687;BME280;37774;52.192;4.584;2023-07-29T17:17:24;100797.47;;;21.30;100.00
51687;BME280;37774;52.192;4.584;2023-07-29T17:20:10;100827.75;;;21.56;100.00
51687;BME280;37774;52.192;4.584;2023-07-29T17:22:56;100858.38;;;21.60;100.00
51687;BME280;37774;52.192;4.584;2023-07-29T17:25:41;100832.81;;;21.27;100.00
51687;BME280;37774;52.192;4.584;2023-07-29T17:28:28;100862.34;;;21.69;100.00
51687;BME280;37774;52.192;4.584;2023-07-29T17:31:13;100859.28;;;21.43;100.00
51687;BME280;37774;52.192;4.584;2023-07-29T17:33:59;100767.63;;;20.94;100.00
51687;BME280;37774;52.192;4.584;2023-07-29T17:39:29;100861.50;;;21.51;100.00
51687;BME280;37774;52.192;4.584;2023-07-29T17:42:15;100775.41;;;20.80;100.00
51687;BME280;37774;52.192;4.584;2023-07-29T17:45:02;100821.66;;;21.05;100.00
51687;BME280;37774;52.192;4.584;2023-07-29T17:47:47;100829.44;;;21.08;100.00
51687;BME280;37774;52.192;4.584;2023-07-29T17:50:33;100806.47;;;20.92;100.00
51687;BME280;37774;52.192;4.584;2023-07-29T17:53:19;100871.84;;;21.22;100.00
51687;BME280;37774;52.192;4.584;2023-07-29T17:56:04;100772.66;;;20.46;100.00
51687;BME280;37774;52.192;4.584;2023-07-29T17:58:50;100889.09;;;21.12;100.00
51687;BME280;37774;52.192;4.584;2023-07-29T18:01:36;100796.31;;;20.48;100.00
51687;BME280;37774;52.192;4.584;2023-07-29T18:04:25;100823.44;;;20.51;100.00
51687;BME280;37774;52.192;4.584;2023-07-29T18:07:10;100902.22;;;20.96;100.00
51687;BME280;37774;52.192;4.584;2023-07-29T18:09:56;100912.56;;;20.83;100.00
51687;BME280;37774;52.192;4.584;2023-07-29T18:12:41;100885.84;;;20.52;100.00
51687;BME280;37774;52.192;4.584;2023-07-29T18:15:26;100920.13;;;20.71;100.00